Time;durP1;ratioP1;P1;durP2;ratioP2;P2;SDS_P1;SDS_P2;PMS_P1;PMS_P2;Temp;Humidity;BMP_temperature;BMP_pressure;BME280_temperature;BME280_humidity;BME280_pressure;Samples;Min_cycle;Max_cycle;Signal;HPM_P1;HPM_P2
2022/01/08 00:01:11;;;;;;;5.53;3.50;;;-0.40;96.30;;;;;;4897483;29;20236;-79
2022/01/08 00:03:39;;;;;;;5.43;4.03;;;-0.40;96.30;;;;;;4880362;29;20181;-78
2022/01/08 00:06:04;;;;;;;4.70;4.10;;;-0.30;96.30;;;;;;4897438;29;20414;-78
2022/01/08 00:08:30;;;;;;;4.40;3.43;;;-0.40;96.30;;;;;;4880387;29;20465;-77
2022/01/08 00:10:56;;;;;;;4.20;3.60;;;-0.40;96.30;;;;;;4897226;29;20197;-76
2022/01/08 00:13:21;;;;;;;4.43;3.07;;;-0.40;96.30;;;;;;4897072;29;20432;-75
2022/01/08 00:15:47;;;;;;;2.63;2.23;;;-0.40;96.30;;;;;;4897369;29;20180;-79
2022/01/08 00:18:12;;;;;;;2.83;2.13;;;-0.40;96.30;;;;;;4897054;29;20173;-79
2022/01/08 00:20:38;;;;;;;2.90;2.30;;;-0.30;96.30;;;;;;4897177;29;20201;-79
2022/01/08 00:23:04;;;;;;;3.67;2.27;;;-0.20;96.30;;;;;;4880287;29;20215;-79
2022/01/08 00:25:29;;;;;;;2.40;2.20;;;-0.10;96.30;;;;;;4879995;29;20662;-79
2022/01/08 00:27:55;;;;;;;3.90;2.40;;;-0.10;96.30;;;;;;4897010;29;20208;-78
2022/01/08 00:30:20;;;;;;;3.30;2.60;;;-0.10;96.30;;;;;;4896941;29;20177;-78
2022/01/08 00:32:46;;;;;;;3.73;2.57;;;-0.10;96.30;;;;;;4880157;29;20265;-79
2022/01/08 00:35:12;;;;;;;2.60;2.13;;;-0.10;96.30;;;;;;4903833;29;20213;-79
2022/01/08 00:37:38;;;;;;;4.03;2.60;;;-0.10;96.30;;;;;;4898752;29;20244;-78
2022/01/08 00:40:09;;;;;;;3.33;2.70;;;-0.10;96.30;;;;;;4914597;29;21140;-78
2022/01/08 00:42:35;;;;;;;2.70;2.17;;;-0.10;96.30;;;;;;4898809;29;20941;-79
2022/01/08 00:45:01;;;;;;;2.50;2.30;;;0.00;96.30;;;;;;4898650;29;20870;-77
2022/01/08 00:47:27;;;;;;;2.57;2.20;;;0.10;96.30;;;;;;4898604;29;20488;-77
2022/01/08 00:49:52;;;;;;;4.17;2.40;;;0.10;96.30;;;;;;4915708;29;20412;-79
2022/01/08 00:52:18;;;;;;;5.53;2.50;;;0.10;96.30;;;;;;4915563;29;20196;-78
2022/01/08 00:54:43;;;;;;;2.40;2.20;;;0.00;96.30;;;;;;4898401;29;20177;-78
2022/01/08 00:57:09;;;;;;;2.17;1.97;;;-0.10;96.30;;;;;;4898715;29;20211;-78
2022/01/08 00:59:34;;;;;;;3.03;2.77;;;-0.10;96.30;;;;;;4898670;29;20239;-78
2022/01/08 05:00:15;;;;;;;3.40;2.20;;;-0.10;96.30;;;;;;5980098;23;20465;-79
2022/01/08 05:02:40;;;;;;;3.73;1.90;;;-0.20;96.30;;;;;;4905078;29;20505;-79
2022/01/08 05:05:06;;;;;;;2.83;2.27;;;-0.20;96.30;;;;;;4911112;29;20418;-79
2022/01/08 05:07:32;;;;;;;6.43;3.23;;;-0.20;96.30;;;;;;4879978;29;20675;-79
2022/01/08 05:09:57;;;;;;;3.33;2.13;;;-0.20;96.30;;;;;;4905530;29;20431;-78
2022/01/08 05:12:23;;;;;;;2.63;2.00;;;-0.20;96.30;;;;;;4915658;29;20247;-79
2022/01/08 05:14:49;;;;;;;3.23;2.03;;;-0.20;96.30;;;;;;4907072;29;20188;-76
2022/01/08 05:17:15;;;;;;;2.27;1.70;;;-0.20;96.30;;;;;;4929010;29;20177;-76
2022/01/08 05:19:50;;;;;;;2.10;1.90;;;-0.20;96.30;;;;;;4927147;29;20420;-76
2022/01/08 05:22:26;;;;;;;2.40;2.00;;;-0.20;96.30;;;;;;4918196;29;20633;-76
2022/01/08 05:24:52;;;;;;;1.80;1.60;;;-0.20;96.30;;;;;;4915322;29;20400;-77
2022/01/08 05:27:18;;;;;;;2.77;2.07;;;-0.10;96.30;;;;;;4915746;29;20456;-75
2022/01/08 05:29:44;;;;;;;1.90;1.70;;;-0.10;96.30;;;;;;4898844;29;20632;-76
2022/01/08 05:42:31;;;;;;;1.50;1.33;;;0.10;96.30;;;;;;5433412;23;20494;-74
2022/01/08 05:44:57;;;;;;;2.03;1.30;;;0.20;96.30;;;;;;4916719;29;20498;-75
2022/01/08 05:47:23;;;;;;;2.50;1.67;;;0.30;96.30;;;;;;4935419;29;20663;-74
2022/01/08 05:49:48;;;;;;;2.03;1.50;;;0.30;96.30;;;;;;4936615;29;20222;-74
2022/01/08 05:52:14;;;;;;;2.17;1.90;;;0.40;96.30;;;;;;4954451;29;20513;-74
2022/01/08 05:54:40;;;;;;;2.03;1.83;;;0.40;96.30;;;;;;4955269;29;20604;-79
2022/01/08 05:57:06;;;;;;;1.63;1.53;;;0.40;96.30;;;;;;4955974;29;20175;-79
2022/01/08 05:59:32;;;;;;;1.50;1.40;;;0.40;96.30;;;;;;4955052;29;20546;-78
2022/01/08 06:01:58;;;;;;;1.40;1.20;;;0.30;96.30;;;;;;4956512;29;20427;-79
2022/01/08 06:04:24;;;;;;;3.30;2.03;;;0.30;96.30;;;;;;4955508;29;20175;-79
2022/01/08 06:06:49;;;;;;;3.97;2.23;;;0.30;96.30;;;;;;4938910;29;20425;-78
2022/01/08 06:09:15;;;;;;;2.80;1.60;;;0.30;96.30;;;;;;4941130;29;20298;-79
2022/01/08 06:11:40;;;;;;;1.97;1.83;;;0.30;96.30;;;;;;4956266;29;20194;-79
2022/01/08 06:14:06;;;;;;;2.03;1.60;;;0.30;96.30;;;;;;4955412;29;20167;-79
2022/01/08 06:16:37;;;;;;;2.70;1.80;;;0.30;96.30;;;;;;4954804;29;20210;-78
2022/01/08 06:19:07;;;;;;;1.90;1.63;;;0.20;96.30;;;;;;4956107;28;20174;-78
2022/01/08 06:21:33;;;;;;;2.17;1.60;;;0.10;96.30;;;;;;4955771;28;20441;-79
2022/01/08 06:23:58;;;;;;;2.17;2.03;;;0.00;96.30;;;;;;4955454;29;20406;-79
2022/01/08 06:26:24;;;;;;;2.40;2.00;;;-0.10;96.30;;;;;;4954579;29;20666;-79
2022/01/08 06:28:51;;;;;;;8.20;5.60;;;-0.10;96.30;;;;;;4954700;29;20202;-80
2022/01/08 06:31:18;;;;;;;21.90;13.50;;;-0.10;96.30;;;;;;4954688;29;20191;-79
2022/01/08 06:33:43;;;;;;;19.50;12.30;;;-0.20;96.30;;;;;;4953931;29;20513;-79
2022/01/08 06:36:09;;;;;;;10.30;7.53;;;-0.10;96.30;;;;;;4942856;29;20476;-79
2022/01/08 06:38:34;;;;;;;8.87;6.40;;;-0.20;96.30;;;;;;4954167;29;20185;-79
2022/01/08 06:40:59;;;;;;;5.23;4.70;;;-0.30;96.30;;;;;;4938180;29;20210;-79
2022/01/08 06:43:25;;;;;;;3.30;2.90;;;-0.40;96.30;;;;;;4955217;29;20209;-79
2022/01/08 06:45:50;;;;;;;2.63;2.23;;;-0.40;96.30;;;;;;4954468;29;20590;-78
2022/01/08 06:48:16;;;;;;;2.73;2.37;;;-0.50;96.30;;;;;;4955364;29;20210;-79
2022/01/08 06:50:41;;;;;;;6.50;3.73;;;-0.60;96.30;;;;;;4955090;29;20198;-79
2022/01/08 06:53:07;;;;;;;13.53;3.40;;;-0.60;96.30;;;;;;4955223;29;20211;-78
2022/01/08 06:55:32;;;;;;;2.83;2.50;;;-0.50;96.30;;;;;;4954197;29;20179;-79
2022/01/08 06:57:59;;;;;;;4.00;3.00;;;-0.60;96.30;;;;;;4954090;28;20179;-76
2022/01/08 07:00:24;;;;;;;3.97;2.50;;;-0.60;96.30;;;;;;4955199;29;20175;-77
2022/01/08 07:02:50;;;;;;;5.67;4.77;;;-0.60;96.30;;;;;;4954957;29;20490;-79
2022/01/08 07:05:16;;;;;;;7.57;4.67;;;-0.60;96.30;;;;;;4953487;29;20187;-79
2022/01/08 07:07:42;;;;;;;3.80;3.40;;;-0.60;96.30;;;;;;4955037;29;20513;-78
2022/01/08 07:10:07;;;;;;;7.17;3.50;;;-0.60;96.30;;;;;;4954859;29;20194;-78
2022/01/08 07:12:33;;;;;;;5.13;3.53;;;-0.60;96.30;;;;;;4955028;29;20772;-79
2022/01/08 07:14:58;;;;;;;5.70;2.63;;;-0.60;96.30;;;;;;4953225;29;20186;-78
2022/01/08 07:17:24;;;;;;;4.20;3.60;;;-0.60;96.30;;;;;;4937714;29;20201;-79
2022/01/08 07:19:49;;;;;;;4.73;3.10;;;-0.60;96.30;;;;;;4937438;29;20258;-78
2022/01/08 07:22:15;;;;;;;5.80;4.30;;;-0.60;96.30;;;;;;4937652;29;20206;-78
2022/01/08 07:24:41;;;;;;;5.80;3.80;;;-0.50;96.30;;;;;;4952823;29;20178;-78
2022/01/08 07:27:06;;;;;;;3.57;3.00;;;-0.60;96.30;;;;;;4954679;29;20524;-77
2022/01/08 07:29:32;;;;;;;6.50;4.10;;;-0.60;96.30;;;;;;4954782;29;20171;-79
2022/01/08 07:31:57;;;;;;;3.73;3.23;;;-0.60;96.30;;;;;;4954680;29;20191;-79
2022/01/08 07:34:23;;;;;;;6.83;4.20;;;-0.60;96.30;;;;;;4952842;29;20620;-78
2022/01/08 07:36:48;;;;;;;7.30;4.90;;;-0.60;96.30;;;;;;4954573;29;20175;-78
2022/01/08 07:39:14;;;;;;;7.53;4.57;;;-0.60;96.30;;;;;;4953311;29;20189;-79
2022/01/08 07:41:39;;;;;;;7.93;4.23;;;-0.50;96.30;;;;;;4954121;29;20222;-79
2022/01/08 07:44:05;;;;;;;4.13;3.73;;;-0.50;96.30;;;;;;4952616;29;20187;-78
2022/01/08 07:46:31;;;;;;;5.10;3.97;;;-0.40;96.30;;;;;;4953098;29;20211;-77
2022/01/08 07:48:56;;;;;;;3.37;3.07;;;-0.50;96.30;;;;;;4953781;29;20214;-78
2022/01/08 07:51:21;;;;;;;7.20;3.77;;;-0.40;96.30;;;;;;4954212;29;20198;-78
2022/01/08 07:53:47;;;;;;;4.80;3.00;;;-0.40;96.30;;;;;;4953291;29;20233;-78
2022/01/08 07:56:12;;;;;;;4.80;3.00;;;-0.30;96.30;;;;;;4953009;29;20651;-78
2022/01/08 07:58:38;;;;;;;19.47;12.80;;;-0.30;96.30;;;;;;4943956;29;20183;-78
2022/01/08 08:01:03;;;;;;;14.97;9.07;;;-0.20;96.30;;;;;;4941455;29;20234;-77
2022/01/08 08:03:29;;;;;;;7.67;5.60;;;-0.20;96.30;;;;;;4933396;29;20195;-77
2022/01/08 08:05:54;;;;;;;9.63;4.93;;;-0.20;96.30;;;;;;4939353;29;20195;-78
2022/01/08 08:08:21;;;;;;;8.17;7.20;;;-0.10;96.30;;;;;;4945824;29;20250;-75
2022/01/08 08:10:50;;;;;;;7.10;4.73;;;-0.10;96.30;;;;;;4944199;29;20195;-74
2022/01/08 08:13:17;;;;;;;5.57;4.77;;;-0.10;96.30;;;;;;4953426;29;20414;-77
2022/01/08 08:15:42;;;;;;;6.23;5.63;;;0.00;96.30;;;;;;4934589;29;20935;-77
2022/01/08 08:18:08;;;;;;;6.23;4.90;;;-0.10;96.30;;;;;;4952870;29;20414;-74
2022/01/08 08:20:33;;;;;;;5.73;5.10;;;-0.10;96.30;;;;;;4954231;29;20203;-73
2022/01/08 08:22:59;;;;;;;5.00;4.50;;;-0.10;96.30;;;;;;4954211;29;20210;-74
2022/01/08 08:25:24;;;;;;;6.27;4.47;;;0.00;96.30;;;;;;4954032;29;20538;-75
2022/01/08 08:27:50;;;;;;;5.20;4.70;;;0.00;96.30;;;;;;4953600;29;20246;-76
2022/01/08 08:30:16;;;;;;;5.50;4.50;;;0.00;96.30;;;;;;4935438;29;20175;-74
2022/01/08 08:32:42;;;;;;;4.50;3.90;;;0.10;96.30;;;;;;4934898;29;20187;-73
2022/01/08 08:35:09;;;;;;;7.50;4.93;;;0.30;96.30;;;;;;4940885;29;20422;-74
2022/01/08 08:37:36;;;;;;;7.50;4.90;;;0.30;96.30;;;;;;4937674;29;20462;-77
2022/01/08 08:40:03;;;;;;;4.73;3.97;;;0.30;96.30;;;;;;4934962;29;20418;-75
2022/01/08 08:42:29;;;;;;;6.57;4.70;;;0.30;96.30;;;;;;4917487;29;20479;-76
2022/01/08 08:44:54;;;;;;;5.23;4.73;;;0.50;96.30;;;;;;4934337;29;20424;-75
2022/01/08 08:47:20;;;;;;;5.50;4.87;;;0.60;96.30;;;;;;4934727;29;20203;-78
2022/01/08 08:49:45;;;;;;;5.80;5.20;;;0.60;96.30;;;;;;4937465;29;20180;-77
2022/01/08 08:52:11;;;;;;;7.43;6.23;;;0.60;96.30;;;;;;4940567;29;20226;-78
2022/01/08 08:54:39;;;;;;;7.33;6.37;;;0.60;96.30;;;;;;4953355;29;20249;-78
2022/01/08 08:57:05;;;;;;;15.27;7.90;;;0.60;96.30;;;;;;4953448;29;20176;-78
2022/01/08 08:59:31;;;;;;;7.70;6.63;;;0.50;96.30;;;;;;4926356;29;20998;-76
2022/01/08 09:01:57;;;;;;;17.87;10.70;;;0.50;96.30;;;;;;4934877;29;20219;-78
2022/01/08 09:04:23;;;;;;;10.60;8.77;;;0.50;96.30;;;;;;4933527;29;20172;-78
2022/01/08 09:06:49;;;;;;;9.83;7.50;;;0.60;96.30;;;;;;4918060;29;20179;-78
2022/01/08 09:09:14;;;;;;;9.60;7.00;;;0.70;96.30;;;;;;4939845;29;20470;-78
2022/01/08 09:11:41;;;;;;;7.20;6.40;;;0.70;96.30;;;;;;4953572;29;20186;-76
2022/01/08 09:14:07;;;;;;;7.53;6.03;;;0.70;96.30;;;;;;4952120;29;20226;-78
2022/01/08 09:16:34;;;;;;;12.00;7.00;;;0.80;96.30;;;;;;4936020;29;20416;-77
2022/01/08 09:19:00;;;;;;;13.30;11.50;;;0.70;96.30;;;;;;4953242;29;20194;-77
2022/01/08 09:21:26;;;;;;;12.70;8.87;;;0.60;96.30;;;;;;4953236;28;20450;-77
2022/01/08 09:23:51;;;;;;;9.23;6.70;;;0.60;96.30;;;;;;4952106;29;20188;-78
2022/01/08 09:26:17;;;;;;;10.60;7.57;;;0.50;96.30;;;;;;4938111;29;20172;-77
2022/01/08 09:28:42;;;;;;;8.93;8.03;;;0.40;96.30;;;;;;4956479;29;20566;-77
2022/01/08 09:31:08;;;;;;;8.70;7.20;;;0.40;96.30;;;;;;4957720;29;20314;-79
2022/01/08 09:33:34;;;;;;;9.40;7.30;;;0.50;96.30;;;;;;4957218;29;20186;-78
2022/01/08 09:35:59;;;;;;;11.67;8.17;;;0.70;96.30;;;;;;4957070;29;20191;-79
2022/01/08 09:38:25;;;;;;;13.00;9.60;;;0.70;96.30;;;;;;4939909;29;20272;-77
2022/01/08 09:40:51;;;;;;;8.17;7.13;;;0.70;96.30;;;;;;4956652;29;20213;-77
2022/01/08 09:43:17;;;;;;;12.03;6.53;;;0.70;96.30;;;;;;4936549;29;20222;-78
2022/01/08 09:45:43;;;;;;;6.83;6.00;;;0.80;96.30;;;;;;4952928;29;20186;-77
2022/01/08 09:48:09;;;;;;;9.23;7.67;;;0.80;96.30;;;;;;4939298;29;20466;-77
2022/01/08 09:50:35;;;;;;;8.53;6.60;;;0.90;96.30;;;;;;4957024;29;20442;-77
2022/01/08 09:53:00;;;;;;;6.93;5.93;;;0.80;96.30;;;;;;4956383;29;20190;-77
2022/01/08 09:55:27;;;;;;;9.50;7.23;;;0.60;96.30;;;;;;4956106;29;20533;-77
2022/01/08 09:57:53;;;;;;;9.03;7.73;;;0.70;96.30;;;;;;4953597;29;20175;-77
2022/01/08 10:00:20;;;;;;;9.50;6.80;;;0.70;96.30;;;;;;4956379;29;20423;-77
2022/01/08 10:02:45;;;;;;;8.20;7.00;;;0.70;96.30;;;;;;4956521;29;20418;-76
2022/01/08 10:05:15;;;;;;;10.80;7.27;;;0.70;96.30;;;;;;4955746;29;20781;-76
2022/01/08 10:07:41;;;;;;;9.27;6.57;;;0.50;96.30;;;;;;4929224;29;20199;-76
2022/01/08 10:10:12;;;;;;;7.77;5.93;;;0.60;96.30;;;;;;4938661;29;21059;-76
2022/01/08 10:12:53;;;;;;;8.47;7.37;;;0.70;96.30;;;;;;4950407;29;20455;-76
2022/01/08 10:18:26;;;;;;;9.73;6.13;;;0.70;96.30;;;;;;4947958;29;20407;-76
2022/01/08 10:20:52;;;;;;;8.10;7.30;;;0.70;96.30;;;;;;4945090;29;20518;-76
2022/01/08 10:23:23;;;;;;;9.27;6.93;;;0.80;96.30;;;;;;4946440;29;20618;-76
2022/01/08 10:26:04;;;;;;;9.10;7.00;;;0.90;96.30;;;;;;4947330;29;20502;-74
2022/01/08 10:28:48;;;;;;;7.80;6.87;;;0.90;96.30;;;;;;4936850;29;20482;-73
2022/01/08 10:31:27;;;;;;;9.73;6.93;;;0.90;96.30;;;;;;4951566;29;20438;-76
2022/01/08 10:34:06;;;;;;;13.77;9.97;;;0.90;96.30;;;;;;4937850;29;20494;-76
2022/01/08 10:36:35;;;;;;;9.63;7.70;;;1.00;96.30;;;;;;4955640;29;20422;-75
2022/01/08 10:39:06;;;;;;;17.90;9.87;;;1.10;96.30;;;;;;4956009;28;20415;-74
2022/01/08 10:41:32;;;;;;;24.90;15.50;;;1.10;96.30;;;;;;4950104;28;20447;-75
2022/01/08 10:44:09;;;;;;;20.90;15.13;;;1.20;96.30;;;;;;4938748;29;20440;-76
2022/01/08 10:46:36;;;;;;;21.13;13.93;;;1.30;96.30;;;;;;4955582;29;20169;-75
2022/01/08 10:49:03;;;;;;;16.63;10.43;;;1.60;96.30;;;;;;4927759;29;20481;-75
2022/01/08 10:51:38;;;;;;;24.87;14.70;;;1.70;96.30;;;;;;4947037;29;20442;-75
2022/01/08 10:54:08;;;;;;;24.13;16.37;;;1.80;96.30;;;;;;4950822;29;20470;-74
2022/01/08 10:56:40;;;;;;;16.37;11.97;;;1.80;96.30;;;;;;4954841;29;20403;-75
2022/01/08 10:59:20;;;;;;;9.70;8.40;;;1.70;96.30;;;;;;4938429;29;20418;-75
2022/01/08 11:01:52;;;;;;;11.87;8.90;;;1.60;96.30;;;;;;4954602;28;20513;-74
2022/01/08 11:04:46;;;;;;;8.63;7.40;;;1.50;96.30;;;;;;4934062;28;20954;-75
2022/01/08 11:07:27;;;;;;;10.70;8.33;;;1.50;96.30;;;;;;4931567;29;20423;-75
2022/01/08 11:09:55;;;;;;;12.60;9.77;;;1.50;96.30;;;;;;4942565;29;20459;-75
2022/01/08 11:12:36;;;;;;;10.77;8.43;;;1.40;96.30;;;;;;4936010;29;20431;-74
2022/01/08 11:17:47;;;;;;;8.23;6.27;;;1.50;96.30;;;;;;4940982;29;20423;-73
2022/01/08 11:20:18;;;;;;;9.97;7.10;;;1.60;96.30;;;;;;4941964;29;20404;-72
2022/01/08 11:22:56;;;;;;;10.33;7.67;;;1.60;96.30;;;;;;4946144;29;20985;-75
2022/01/08 11:25:30;;;;;;;10.00;7.83;;;1.50;96.30;;;;;;4957082;29;20775;-73
2022/01/08 11:28:09;;;;;;;8.07;6.07;;;1.50;96.30;;;;;;4956121;29;20454;-72
2022/01/08 11:51:20;;;;;;;3.67;3.37;;;2.20;96.30;;;;;;4917318;23;20484;-72
2022/01/08 11:53:47;;;;;;;3.33;2.83;;;2.20;96.30;;;;;;4916420;29;20428;-72
2022/01/08 11:56:31;;;;;;;4.63;3.57;;;2.10;96.30;;;;;;4916525;29;20437;-72
2022/01/08 11:59:11;;;;;;;4.70;3.83;;;2.00;96.30;;;;;;4916426;29;20392;-72
2022/01/08 12:14:34;;;;;;;1.83;1.30;;;1.80;96.30;;;;;;5199721;23;20497;-73
2022/01/08 12:17:11;;;;;;;1.27;0.90;;;1.80;96.30;;;;;;4877128;29;20930;-71
2022/01/08 12:19:53;;;;;;;1.10;1.00;;;1.60;96.30;;;;;;4884173;29;20264;-71
2022/01/08 12:22:18;;;;;;;1.27;0.87;;;1.70;96.30;;;;;;4911732;29;20448;-72
2022/01/08 12:24:49;;;;;;;1.00;0.90;;;1.80;96.30;;;;;;4897109;29;20410;-74
2022/01/08 12:27:39;;;;;;;0.93;0.73;;;1.80;96.30;;;;;;4897199;29;20169;-72
2022/01/08 12:30:24;;;;;;;0.90;0.70;;;1.40;96.30;;;;;;4907521;29;20504;-73
2022/01/08 12:33:10;;;;;;;1.00;0.77;;;1.20;96.30;;;;;;4915682;29;20464;-73
2022/01/08 12:35:38;;;;;;;1.50;0.80;;;1.20;96.30;;;;;;4905539;29;20524;-73
2022/01/08 12:38:07;;;;;;;1.00;0.80;;;1.10;96.30;;;;;;4896945;29;20555;-73
2022/01/08 12:40:35;;;;;;;1.30;0.70;;;0.90;96.30;;;;;;4896925;29;20473;-74
2022/01/08 12:43:21;;;;;;;1.00;0.70;;;0.80;96.30;;;;;;4896987;29;20413;-75
2022/01/08 12:45:48;;;;;;;1.43;0.90;;;0.80;96.30;;;;;;4897048;29;20901;-74
2022/01/08 12:48:15;;;;;;;1.00;0.67;;;0.90;96.30;;;;;;4896893;29;20883;-74
2022/01/08 12:50:43;;;;;;;1.50;0.80;;;1.00;96.30;;;;;;4911385;29;20540;-73
2022/01/08 12:53:15;;;;;;;1.83;0.80;;;1.00;96.30;;;;;;4896674;29;20418;-74
2022/01/08 12:56:02;;;;;;;0.87;0.60;;;1.00;96.30;;;;;;4897072;29;20432;-74
2022/01/08 12:58:45;;;;;;;1.00;0.70;;;0.90;96.30;;;;;;4900520;29;20417;-74
2022/01/08 13:01:13;;;;;;;1.30;0.70;;;1.00;96.30;;;;;;4900611;29;20441;-73
2022/01/08 13:03:51;;;;;;;1.17;0.73;;;1.00;96.30;;;;;;4900392;29;20420;-72
2022/01/08 13:06:17;;;;;;;1.10;0.80;;;0.90;96.30;;;;;;4890663;29;20426;-76
2022/01/08 13:08:48;;;;;;;1.00;0.80;;;0.90;96.30;;;;;;4882527;29;20465;-74
2022/01/08 13:11:18;;;;;;;2.60;0.80;;;0.90;96.30;;;;;;4900528;29;20197;-74
2022/01/08 13:13:47;;;;;;;3.00;1.00;;;0.90;96.30;;;;;;4885261;29;20445;-76
2022/01/08 13:16:14;;;;;;;1.93;0.73;;;0.80;96.30;;;;;;4897957;29;20424;-76
2022/01/08 13:18:41;;;;;;;1.17;0.77;;;1.00;96.30;;;;;;4900390;29;20453;-74
2022/01/08 13:21:08;;;;;;;1.10;0.80;;;1.00;96.30;;;;;;4898892;29;20811;-76
2022/01/08 13:23:48;;;;;;;1.00;0.77;;;0.90;96.30;;;;;;4900125;29;20466;-76
2022/01/08 13:26:14;;;;;;;1.20;0.93;;;0.90;96.30;;;;;;4898860;29;20417;-76
2022/01/08 13:28:49;;;;;;;2.53;1.47;;;0.80;96.30;;;;;;4895146;29;20529;-76
2022/01/08 13:31:15;;;;;;;1.87;1.13;;;0.80;96.30;;;;;;4891302;29;20520;-76
2022/01/08 13:33:41;;;;;;;1.60;1.30;;;0.70;96.30;;;;;;4888320;29;20838;-75
2022/01/08 13:36:12;;;;;;;2.30;1.07;;;0.80;96.30;;;;;;4885766;29;20517;-75
2022/01/08 13:38:40;;;;;;;6.00;1.70;;;0.80;96.30;;;;;;4881258;29;20182;-75
2022/01/08 13:41:11;;;;;;;2.40;1.80;;;0.60;96.30;;;;;;4881061;29;20448;-75
2022/01/08 13:44:12;;;;;;;2.17;1.90;;;0.80;96.30;;;;;;4880841;29;20437;-75
2022/01/08 13:46:38;;;;;;;2.90;2.60;;;0.80;96.30;;;;;;4826370;29;20511;-75
2022/01/08 13:49:07;;;;;;;4.03;3.00;;;0.60;96.30;;;;;;4892527;29;20469;-76
2022/01/08 13:51:36;;;;;;;5.80;3.90;;;0.40;96.30;;;;;;4899641;29;20205;-75
2022/01/08 13:54:05;;;;;;;8.10;3.87;;;0.20;96.30;;;;;;4895598;29;20484;-75
2022/01/08 13:56:32;;;;;;;6.07;5.57;;;0.20;96.30;;;;;;4880977;29;20454;-76
2022/01/08 13:59:15;;;;;;;6.50;5.30;;;0.20;96.30;;;;;;4889419;29;20425;-76
2022/01/08 14:01:55;;;;;;;5.40;4.50;;;0.00;96.30;;;;;;4898241;29;20872;-75
2022/01/08 14:04:24;;;;;;;5.80;5.20;;;0.00;96.30;;;;;;4899290;29;20421;-75
2022/01/08 14:07:09;;;;;;;10.00;6.30;;;0.10;96.30;;;;;;4898327;29;20997;-76
2022/01/08 14:09:35;;;;;;;11.80;6.40;;;0.00;96.30;;;;;;4897638;29;20471;-76
2022/01/08 14:12:13;;;;;;;10.70;6.63;;;0.00;96.30;;;;;;4899225;29;20433;-74
2022/01/08 14:14:49;;;;;;;6.93;5.40;;;-0.10;96.30;;;;;;4899078;29;20566;-74
2022/01/08 14:17:17;;;;;;;10.40;7.00;;;-0.10;96.30;;;;;;4899464;29;20468;-76
2022/01/08 14:19:43;;;;;;;9.13;6.47;;;-0.10;96.30;;;;;;4899325;29;20453;-76
2022/01/08 14:22:09;;;;;;;7.30;5.50;;;-0.10;96.30;;;;;;4897067;29;20582;-76
2022/01/08 14:24:38;;;;;;;7.83;4.90;;;-0.10;96.30;;;;;;4895073;29;20509;-75
2022/01/08 14:27:12;;;;;;;13.63;7.13;;;-0.10;96.30;;;;;;4902321;29;20569;-76
2022/01/08 14:29:41;;;;;;;9.57;5.93;;;-0.20;96.30;;;;;;4911484;29;20464;-75
2022/01/08 14:32:09;;;;;;;8.40;6.13;;;-0.20;96.30;;;;;;4916612;29;20425;-74
2022/01/08 14:34:52;;;;;;;12.23;5.83;;;-0.30;96.30;;;;;;4892517;29;20425;-74
2022/01/08 14:37:37;;;;;;;6.77;5.30;;;-0.30;96.30;;;;;;4887539;29;20486;-76
2022/01/08 14:40:28;;;;;;;8.50;5.60;;;-0.30;96.30;;;;;;4895628;29;20421;-76
2022/01/08 14:43:02;;;;;;;7.37;4.90;;;-0.30;96.30;;;;;;4896632;29;20512;-76
2022/01/08 14:45:28;;;;;;;7.77;4.90;;;-0.30;96.30;;;;;;4897133;29;20442;-76
2022/01/08 14:47:57;;;;;;;9.20;4.20;;;-0.40;96.30;;;;;;4898687;29;20603;-75
2022/01/08 14:50:30;;;;;;;7.80;5.53;;;-0.40;96.30;;;;;;4898540;29;20209;-77
2022/01/08 14:53:00;;;;;;;7.43;4.27;;;-0.40;96.30;;;;;;4893172;29;20436;-75
2022/01/08 14:55:36;;;;;;;5.20;3.47;;;-0.40;96.30;;;;;;4898470;29;20936;-75
2022/01/08 14:58:03;;;;;;;5.77;4.13;;;-0.50;96.30;;;;;;4898443;29;20835;-77
2022/01/08 15:00:32;;;;;;;4.00;3.47;;;-0.50;96.30;;;;;;4897099;29;20429;-77
2022/01/08 15:02:58;;;;;;;4.83;3.20;;;-0.50;96.30;;;;;;4898402;29;20914;-75
2022/01/08 15:05:23;;;;;;;6.90;3.30;;;-0.50;96.30;;;;;;4895463;29;20437;-76
2022/01/08 15:07:49;;;;;;;7.97;3.60;;;-0.60;96.30;;;;;;4885307;29;20469;-77
2022/01/08 15:10:15;;;;;;;9.20;3.57;;;-0.70;96.30;;;;;;4892240;29;20649;-76
2022/01/08 15:12:41;;;;;;;8.43;3.50;;;-0.80;96.30;;;;;;4907807;29;20188;-76
2022/01/08 15:15:09;;;;;;;4.83;3.40;;;-0.80;96.30;;;;;;4893492;29;20895;-77
2022/01/08 15:17:35;;;;;;;4.67;3.03;;;-0.80;96.30;;;;;;4898312;29;20173;-76
2022/01/08 15:20:03;;;;;;;6.27;3.30;;;-0.70;96.30;;;;;;4897114;29;20424;-76
2022/01/08 15:22:28;;;;;;;12.10;3.00;;;-0.70;96.30;;;;;;4896472;29;20960;-76
2022/01/08 15:24:54;;;;;;;3.73;2.90;;;-0.60;96.30;;;;;;4881183;29;20425;-75
2022/01/08 15:27:20;;;;;;;7.07;3.90;;;-0.60;96.30;;;;;;4892982;29;20557;-77
2022/01/08 15:29:46;;;;;;;7.23;3.67;;;-0.70;96.30;;;;;;4896696;29;20187;-77
2022/01/08 15:32:11;;;;;;;12.43;6.30;;;-0.70;96.30;;;;;;4897977;29;20437;-76
2022/01/08 15:34:37;;;;;;;8.30;4.37;;;-0.70;96.30;;;;;;4895009;29;20261;-76
2022/01/08 15:37:03;;;;;;;5.63;3.00;;;-0.70;96.30;;;;;;4879250;29;20178;-75
2022/01/08 15:39:28;;;;;;;8.33;4.27;;;-0.70;96.30;;;;;;4879072;29;20178;-75
2022/01/08 15:41:54;;;;;;;6.10;4.23;;;-0.70;96.30;;;;;;4891000;29;20264;-76
2022/01/08 15:44:20;;;;;;;12.77;4.63;;;-0.70;96.30;;;;;;4907116;29;20180;-75
2022/01/08 15:46:46;;;;;;;7.60;3.17;;;-0.70;96.30;;;;;;4925182;29;20467;-76
2022/01/08 15:49:11;;;;;;;5.17;3.70;;;-0.70;96.30;;;;;;4910268;29;20208;-77
2022/01/08 15:51:37;;;;;;;11.03;3.20;;;-0.70;96.30;;;;;;4904021;29;20200;-74
2022/01/08 15:54:04;;;;;;;8.10;4.50;;;-0.70;96.30;;;;;;4915935;29;20207;-75
2022/01/08 15:56:33;;;;;;;14.13;5.87;;;-0.70;96.30;;;;;;4916545;29;20496;-75
2022/01/08 15:58:59;;;;;;;10.20;5.33;;;-0.70;96.30;;;;;;4915161;29;20456;-75
2022/01/08 16:01:25;;;;;;;8.40;4.50;;;-0.70;96.30;;;;;;4916351;29;20503;-76
2022/01/08 16:03:51;;;;;;;7.17;4.40;;;-0.80;96.30;;;;;;4916014;29;20423;-76
2022/01/08 16:06:16;;;;;;;17.40;7.93;;;-0.80;96.30;;;;;;4916200;29;20928;-76
2022/01/08 16:08:42;;;;;;;10.63;6.27;;;-0.80;96.30;;;;;;4913677;29;20452;-76
2022/01/08 16:11:07;;;;;;;7.20;4.40;;;-0.80;96.30;;;;;;4892731;29;20216;-74
2022/01/08 16:13:33;;;;;;;17.30;10.30;;;-0.80;96.30;;;;;;4896201;29;20267;-76
2022/01/08 16:15:58;;;;;;;10.93;4.80;;;-0.90;96.30;;;;;;4897279;29;20200;-76
2022/01/08 16:18:24;;;;;;;6.40;4.40;;;-1.00;96.30;;;;;;4906159;29;20541;-76
2022/01/08 16:20:50;;;;;;;3.80;3.43;;;-1.10;96.30;;;;;;4914606;29;20208;-76
2022/01/08 16:23:17;;;;;;;4.20;3.80;;;-1.20;96.30;;;;;;4915544;29;20180;-75
2022/01/08 16:25:43;;;;;;;6.37;3.30;;;-1.20;96.30;;;;;;4913791;29;20420;-76
2022/01/08 16:28:14;;;;;;;10.70;3.33;;;-1.20;96.30;;;;;;4914476;29;20459;-76
2022/01/08 16:30:41;;;;;;;6.20;3.90;;;-1.30;96.30;;;;;;4915536;29;20196;-75
2022/01/08 16:33:12;;;;;;;4.80;3.13;;;-1.20;96.30;;;;;;4914530;29;20822;-74
2022/01/08 16:35:41;;;;;;;4.70;3.20;;;-1.30;96.30;;;;;;4905565;29;20421;-76
2022/01/08 16:38:07;;;;;;;7.33;3.80;;;-1.30;96.30;;;;;;4896939;29;20910;-75
2022/01/08 16:40:34;;;;;;;5.20;3.90;;;-1.30;96.30;;;;;;4896849;29;20467;-75
2022/01/08 16:43:00;;;;;;;12.77;4.87;;;-1.20;96.30;;;;;;4896996;29;20425;-76
2022/01/08 16:45:26;;;;;;;7.30;5.00;;;-1.20;96.30;;;;;;4896702;29;20425;-76
2022/01/08 16:47:51;;;;;;;4.93;4.43;;;-1.20;96.30;;;;;;4896834;29;20464;-75
2022/01/08 16:50:17;;;;;;;10.30;4.67;;;-1.20;96.30;;;;;;4896793;29;20971;-74
2022/01/08 16:52:43;;;;;;;8.07;4.87;;;-1.10;96.30;;;;;;4895685;29;20374;-76
2022/01/08 16:55:09;;;;;;;9.43;4.00;;;-1.10;96.30;;;;;;4885961;29;20478;-76
2022/01/08 16:57:34;;;;;;;8.53;4.17;;;-1.30;96.30;;;;;;4889388;29;20185;-73
2022/01/08 17:00:00;;;;;;;5.80;3.57;;;-1.30;96.30;;;;;;4895463;29;20432;-74
2022/01/08 17:02:25;;;;;;;6.40;3.60;;;-1.40;96.30;;;;;;4896806;29;20658;-74
2022/01/08 17:04:51;;;;;;;38.53;22.50;;;-1.40;96.30;;;;;;4896406;29;20181;-75
2022/01/08 17:07:16;;;;;;;190.27;84.87;;;-1.40;96.30;;;;;;4896661;29;20782;-74
2022/01/08 17:09:42;;;;;;;209.77;96.00;;;-1.40;96.30;;;;;;4896646;29;20205;-74
2022/01/08 17:12:13;;;;;;;965.53;704.97;;;-1.50;96.30;;;;;;4896466;29;20197;-74
2022/01/08 17:14:39;;;;;;;410.20;209.20;;;-1.50;96.30;;;;;;4898117;29;20184;-76
2022/01/08 17:17:04;;;;;;;104.60;64.83;;;-1.60;96.30;;;;;;4898077;29;20528;-77
2022/01/08 17:19:30;;;;;;;48.97;21.63;;;-1.70;96.30;;;;;;4896961;29;20188;-76
2022/01/08 17:21:55;;;;;;;251.33;125.73;;;-1.70;96.30;;;;;;4896730;29;20205;-73
2022/01/08 17:24:21;;;;;;;104.97;72.23;;;-1.80;96.30;;;;;;4896160;29;20645;-73
2022/01/08 17:26:47;;;;;;;9.37;6.07;;;-1.70;96.30;;;;;;4895448;29;20225;-73
2022/01/08 17:29:14;;;;;;;6.90;3.73;;;-1.70;96.30;;;;;;4896615;29;20460;-74
2022/01/08 17:31:39;;;;;;;4.83;2.90;;;-1.60;96.30;;;;;;4896543;29;20205;-73
2022/01/08 17:34:05;;;;;;;6.33;4.13;;;-1.70;96.30;;;;;;4896331;29;20783;-73
2022/01/08 17:36:30;;;;;;;25.93;9.97;;;-1.50;96.30;;;;;;4896570;29;20259;-76
2022/01/08 17:38:56;;;;;;;6.30;3.43;;;-1.50;96.30;;;;;;4896632;29;20586;-73
2022/01/08 17:41:21;;;;;;;7.97;4.50;;;-1.70;96.30;;;;;;4896363;29;20207;-73